createdAt,value
2018-12-15T00:01:18.028Z,22.81
2018-12-15T00:02:18.051Z,22.84
2018-12-15T00:04:11.014Z,22.84
2018-12-15T00:05:11.024Z,22.74
2018-12-15T00:07:03.980Z,22.77
2018-12-15T00:08:03.998Z,22.76
2018-12-15T00:09:56.954Z,22.88
2018-12-15T00:10:56.971Z,22.83
2018-12-15T00:12:49.916Z,22.83
2018-12-15T00:13:49.946Z,22.76
2018-12-15T00:15:42.898Z,22.84
2018-12-15T00:16:42.918Z,22.76
2018-12-15T00:18:35.874Z,22.83
2018-12-15T00:19:35.893Z,22.78
2018-12-15T00:21:29.338Z,22.76
2018-12-15T00:22:29.357Z,22.77
2018-12-15T00:24:22.325Z,22.74
2018-12-15T00:25:22.327Z,22.77
2018-12-15T00:27:15.271Z,22.74
2018-12-15T00:28:15.302Z,22.80
2018-12-15T00:30:08.256Z,22.74
2018-12-15T00:31:08.272Z,22.76
2018-12-15T00:33:01.226Z,22.68
2018-12-15T00:34:01.250Z,22.71
2018-12-15T00:35:54.201Z,22.71
2018-12-15T00:36:54.223Z,22.78
2018-12-15T00:38:47.171Z,22.84
2018-12-15T00:39:47.197Z,22.76
2018-12-15T00:41:40.154Z,22.76
2018-12-15T00:42:40.171Z,22.76
2018-12-15T00:44:33.123Z,22.76
2018-12-15T00:45:33.147Z,22.74
2018-12-15T00:47:26.100Z,22.63
2018-12-15T00:48:26.118Z,22.70
2018-12-15T00:50:19.069Z,22.71
2018-12-15T00:51:19.094Z,22.71
2018-12-15T00:53:12.038Z,22.71
2018-12-15T00:54:12.069Z,22.65
2018-12-15T00:56:05.026Z,22.70
2018-12-15T00:57:05.047Z,22.68
2018-12-15T00:58:57.989Z,22.68
2018-12-15T00:59:58.016Z,22.62
2018-12-15T01:01:50.970Z,22.70
2018-12-15T01:02:50.987Z,22.62
2018-12-15T01:04:43.939Z,22.70
2018-12-15T01:05:43.964Z,22.58
2018-12-15T01:07:37.920Z,22.63
2018-12-15T01:08:37.935Z,22.67
2018-12-15T01:10:30.891Z,22.56
2018-12-15T01:11:30.910Z,22.67
2018-12-15T01:13:23.855Z,22.61
2018-12-15T01:14:23.887Z,22.58
2018-12-15T01:16:16.841Z,22.62
2018-12-15T01:17:20.565Z,22.56
2018-12-15T01:19:09.806Z,22.55
2018-12-15T01:20:09.835Z,22.55
2018-12-15T01:22:02.786Z,22.55
2018-12-15T01:23:02.809Z,22.53
2018-12-15T01:24:55.757Z,22.47
2018-12-15T01:25:55.799Z,22.53
2018-12-15T01:27:48.740Z,22.55
2018-12-15T01:28:48.760Z,22.55
2018-12-15T01:30:41.732Z,22.53
2018-12-15T01:31:41.729Z,22.53
2018-12-15T01:33:34.683Z,22.55
2018-12-15T01:34:34.703Z,22.53
2018-12-15T01:36:27.654Z,22.52
2018-12-15T01:37:27.675Z,22.51
2018-12-15T01:39:20.625Z,22.61
2018-12-15T01:40:20.650Z,22.55
2018-12-15T01:42:13.601Z,22.56
2018-12-15T01:43:13.626Z,22.53
2018-12-15T01:45:06.566Z,22.53
2018-12-15T01:46:06.597Z,22.56
2018-12-15T01:47:59.554Z,22.51
2018-12-15T01:48:59.578Z,22.43
2018-12-15T01:50:52.526Z,22.55
2018-12-15T01:51:52.554Z,22.46
2018-12-15T01:53:45.507Z,22.52
2018-12-15T01:54:45.529Z,22.44
2018-12-15T01:56:38.488Z,22.41
2018-12-15T01:57:38.511Z,22.43
2018-12-15T01:59:31.455Z,22.49
2018-12-15T02:00:31.480Z,22.49
2018-12-15T02:02:24.431Z,22.51
2018-12-15T02:03:24.455Z,22.53
2018-12-15T02:05:17.405Z,22.61
2018-12-15T02:06:17.434Z,22.44
2018-12-15T02:08:10.386Z,22.52
2018-12-15T02:09:10.406Z,22.43
2018-12-15T02:11:03.354Z,22.43
2018-12-15T02:12:03.381Z,22.44
2018-12-15T02:13:56.327Z,22.46
2018-12-15T02:14:56.352Z,22.46
2018-12-15T02:16:49.302Z,22.52
2018-12-15T02:17:49.323Z,22.44
2018-12-15T02:19:42.264Z,22.47
2018-12-15T02:20:42.296Z,22.44
2018-12-15T02:22:35.248Z,22.47
2018-12-15T02:23:35.268Z,22.46
2018-12-15T02:25:28.215Z,22.44
2018-12-15T02:26:28.240Z,22.40
2018-12-15T02:28:21.191Z,22.43
2018-12-15T02:29:21.217Z,22.46
2018-12-15T02:31:14.166Z,22.43
2018-12-15T02:32:14.188Z,22.46
2018-12-15T02:34:07.140Z,22.41
2018-12-15T02:35:07.164Z,22.40
2018-12-15T02:37:00.140Z,22.51
2018-12-15T02:38:00.136Z,22.47
2018-12-15T02:39:53.078Z,22.47
2018-12-15T02:40:53.103Z,22.44
2018-12-15T02:42:46.062Z,22.40
2018-12-15T02:43:46.085Z,22.49
2018-12-15T02:45:39.039Z,22.44
2018-12-15T02:46:39.065Z,22.46
2018-12-15T02:48:32.017Z,22.43
2018-12-15T02:49:32.034Z,22.38
2018-12-15T02:51:24.978Z,22.38
2018-12-15T02:52:25.011Z,22.34
2018-12-15T02:54:18.020Z,22.34
2018-12-15T02:55:17.989Z,22.44
2018-12-15T02:57:10.952Z,22.37
2018-12-15T02:58:10.965Z,22.41
2018-12-15T03:00:03.908Z,22.40
2018-12-15T03:01:03.937Z,22.33
2018-12-15T03:02:56.892Z,22.30
2018-12-15T03:03:56.914Z,22.23
2018-12-15T03:05:49.859Z,22.25
2018-12-15T03:06:49.891Z,22.26
2018-12-15T03:08:42.875Z,22.26
2018-12-15T03:09:42.893Z,22.25
2018-12-15T03:11:35.839Z,22.36
2018-12-15T03:12:35.869Z,22.30
2018-12-15T03:14:28.826Z,22.26
2018-12-15T03:15:28.956Z,22.30
2018-12-15T03:17:21.798Z,22.30
2018-12-15T03:18:21.821Z,22.22
2018-12-15T03:20:14.776Z,22.23
2018-12-15T03:21:14.798Z,22.34
2018-12-15T03:23:07.752Z,22.22
2018-12-15T03:24:07.773Z,22.25
2018-12-15T03:26:00.717Z,22.30
2018-12-15T03:27:00.746Z,22.26
2018-12-15T03:28:53.708Z,22.31
2018-12-15T03:29:53.729Z,22.18
2018-12-15T03:31:46.678Z,22.33
2018-12-15T03:32:46.713Z,22.19
2018-12-15T03:34:39.656Z,22.19
2018-12-15T03:35:39.675Z,22.14
2018-12-15T03:37:32.636Z,22.22
2018-12-15T03:38:32.651Z,22.16
2018-12-15T03:40:25.596Z,22.19
2018-12-15T03:41:25.623Z,22.16
2018-12-15T03:43:18.577Z,22.12
2018-12-15T03:44:18.603Z,22.12
2018-12-15T03:46:11.543Z,22.19
2018-12-15T03:47:11.571Z,22.15
2018-12-15T03:49:04.527Z,22.18
2018-12-15T03:50:04.545Z,22.15
2018-12-15T03:51:57.494Z,22.16
2018-12-15T03:52:57.520Z,22.18
2018-12-15T03:54:50.491Z,22.12
2018-12-15T03:55:50.518Z,22.18
2018-12-15T03:57:43.504Z,22.19
2018-12-15T03:58:43.485Z,22.19
2018-12-15T04:00:36.930Z,22.14
2018-12-15T04:01:36.953Z,22.18
2018-12-15T04:03:29.906Z,22.12
2018-12-15T04:04:29.926Z,22.12
2018-12-15T04:06:22.869Z,22.14
2018-12-15T04:07:22.899Z,22.07
2018-12-15T04:09:16.358Z,22.10
2018-12-15T04:10:16.378Z,22.14
2018-12-15T04:12:09.325Z,22.12
2018-12-15T04:13:09.350Z,22.01
2018-12-15T04:15:02.304Z,22.10
2018-12-15T04:16:02.326Z,22.04
2018-12-15T04:17:55.277Z,22.12
2018-12-15T04:18:55.306Z,22.18
2018-12-15T04:20:48.254Z,22.04
2018-12-15T04:21:48.277Z,22.15
2018-12-15T04:23:41.238Z,22.08
2018-12-15T04:24:41.251Z,22.08
2018-12-15T04:26:34.192Z,22.10
2018-12-15T04:27:34.223Z,22.07
2018-12-15T04:29:27.176Z,22.04
2018-12-15T04:30:27.195Z,22.07
2018-12-15T04:32:20.148Z,22.15
2018-12-15T04:33:20.177Z,22.04
2018-12-15T04:35:13.127Z,22.08
2018-12-15T04:36:13.143Z,21.97
2018-12-15T04:38:06.087Z,22.07
2018-12-15T04:39:06.118Z,22.01
2018-12-15T04:40:59.073Z,21.97
2018-12-15T04:41:59.099Z,21.99
2018-12-15T04:43:52.066Z,22.03
2018-12-15T04:44:52.071Z,22.03
2018-12-15T04:46:45.017Z,22.06
2018-12-15T04:47:45.044Z,22.06
2018-12-15T04:49:37.996Z,22.04
2018-12-15T04:50:38.017Z,21.92
2018-12-15T04:52:30.970Z,21.92
2018-12-15T04:53:30.990Z,22.00
2018-12-15T04:55:23.943Z,21.94
2018-12-15T04:56:23.972Z,21.96
2018-12-15T04:58:16.906Z,21.99
2018-12-15T04:59:16.938Z,22.01
2018-12-15T05:01:09.886Z,21.91
2018-12-15T05:02:09.905Z,21.97
2018-12-15T05:04:02.860Z,22.04
2018-12-15T05:05:02.882Z,22.01
2018-12-15T05:06:55.828Z,22.03
2018-12-15T05:07:55.856Z,22.03
2018-12-15T05:09:48.820Z,22.10
2018-12-15T05:10:48.834Z,22.15
2018-12-15T05:12:41.789Z,22.10
2018-12-15T05:13:41.813Z,22.10
2018-12-15T05:15:34.794Z,22.12
2018-12-15T05:16:34.816Z,22.10
2018-12-15T05:18:27.759Z,22.12
2018-12-15T05:19:27.789Z,22.08
2018-12-15T05:21:20.745Z,22.18
2018-12-15T05:22:20.764Z,22.16
2018-12-15T05:24:13.732Z,22.16
2018-12-15T05:25:13.737Z,22.03
2018-12-15T05:27:06.683Z,22.12
2018-12-15T05:28:06.713Z,22.01
2018-12-15T05:29:59.664Z,22.10
2018-12-15T05:30:59.685Z,22.16
2018-12-15T05:32:52.632Z,22.14
2018-12-15T05:33:52.661Z,22.18
2018-12-15T05:35:45.620Z,22.10
2018-12-15T05:36:45.637Z,22.15
2018-12-15T05:38:38.586Z,22.19
2018-12-15T05:39:38.618Z,22.12
2018-12-15T05:41:31.564Z,22.33
2018-12-15T05:42:31.588Z,22.21
2018-12-15T05:44:24.553Z,22.25
2018-12-15T05:45:24.561Z,22.28
2018-12-15T05:47:17.514Z,22.19
2018-12-15T05:48:17.542Z,22.15
2018-12-15T05:50:10.494Z,22.23
2018-12-15T05:51:10.517Z,22.19
2018-12-15T05:53:03.464Z,22.18
2018-12-15T05:54:03.490Z,22.22
2018-12-15T05:55:56.444Z,22.40
2018-12-15T05:56:56.467Z,22.30
2018-12-15T05:58:49.415Z,22.25
2018-12-15T05:59:49.441Z,22.25
2018-12-15T06:01:42.393Z,22.30
2018-12-15T06:02:42.412Z,22.31
2018-12-15T06:04:35.355Z,22.28
2018-12-15T06:05:35.380Z,22.23
2018-12-15T06:07:28.341Z,22.31
2018-12-15T06:08:28.361Z,22.25
2018-12-15T06:10:21.310Z,22.30
2018-12-15T06:11:21.328Z,22.38
2018-12-15T06:13:14.272Z,22.46
2018-12-15T06:14:14.302Z,22.43
2018-12-15T06:16:07.251Z,22.49
2018-12-15T06:17:07.274Z,22.49
2018-12-15T06:19:00.216Z,22.52
2018-12-15T06:20:00.250Z,22.47
2018-12-15T06:21:53.214Z,22.43
2018-12-15T06:22:53.228Z,22.40
2018-12-15T06:24:46.184Z,22.46
2018-12-15T06:25:46.207Z,22.44
2018-12-15T06:27:39.159Z,22.43
2018-12-15T06:28:39.176Z,22.49
2018-12-15T06:30:32.132Z,22.51
2018-12-15T06:31:32.156Z,22.51
2018-12-15T06:33:25.096Z,22.51
2018-12-15T06:34:25.127Z,22.62
2018-12-15T06:36:18.079Z,22.70
2018-12-15T06:37:18.097Z,22.68
2018-12-15T06:39:11.042Z,22.71
2018-12-15T06:40:11.069Z,22.73
2018-12-15T06:42:04.020Z,22.71
2018-12-15T06:43:04.044Z,22.70
2018-12-15T06:44:56.989Z,22.74
2018-12-15T06:45:57.019Z,22.78
2018-12-15T06:47:50.467Z,22.83
2018-12-15T06:48:50.495Z,22.88
2018-12-15T06:50:43.483Z,22.83
2018-12-15T06:51:43.464Z,22.84
2018-12-15T06:53:36.409Z,22.92
2018-12-15T06:54:36.434Z,23.01
2018-12-15T06:56:29.389Z,22.98
2018-12-15T06:57:29.407Z,23.07
2018-12-15T06:59:22.351Z,23.02
2018-12-15T07:00:22.383Z,23.04
2018-12-15T07:02:15.336Z,23.04
2018-12-15T07:03:15.357Z,23.10
2018-12-15T07:05:08.304Z,23.01
2018-12-15T07:06:08.335Z,23.01
2018-12-15T07:08:01.288Z,23.08
2018-12-15T07:09:01.306Z,23.06
2018-12-15T07:10:54.294Z,23.07
2018-12-15T07:11:54.287Z,23.11
2018-12-15T07:13:47.232Z,23.11
2018-12-15T07:14:47.260Z,23.04
2018-12-15T07:16:40.215Z,23.10
2018-12-15T07:17:40.232Z,23.04
2018-12-15T07:19:33.186Z,23.17
2018-12-15T07:20:33.210Z,23.16
2018-12-15T07:22:26.166Z,23.17
2018-12-15T07:23:26.182Z,23.11
2018-12-15T07:25:19.134Z,23.11
2018-12-15T07:26:19.161Z,23.13
2018-12-15T07:28:12.131Z,23.21
2018-12-15T07:29:12.155Z,23.17
2018-12-15T07:31:05.125Z,23.36
2018-12-15T07:32:05.136Z,23.29
2018-12-15T07:33:58.076Z,23.28
2018-12-15T07:35:01.151Z,23.32
2018-12-15T07:36:51.055Z,23.32
2018-12-15T07:37:51.078Z,23.28
2018-12-15T07:39:44.021Z,23.34
2018-12-15T07:40:44.052Z,23.25
2018-12-15T07:42:37.017Z,23.28
2018-12-15T07:43:37.032Z,23.32
2018-12-15T07:45:29.977Z,23.37
2018-12-15T07:46:30.006Z,23.33
2018-12-15T07:48:22.960Z,23.36
2018-12-15T07:49:22.979Z,23.36
2018-12-15T07:51:15.928Z,23.32
2018-12-15T07:52:15.956Z,23.56
2018-12-15T07:54:08.911Z,23.51
2018-12-15T07:55:08.933Z,23.51
2018-12-15T07:57:01.889Z,23.49
2018-12-15T07:58:01.914Z,23.47
2018-12-15T07:59:54.860Z,23.54
2018-12-15T08:00:54.891Z,23.47
2018-12-15T08:02:47.858Z,23.40
2018-12-15T08:03:47.867Z,23.55
2018-12-15T08:05:41.320Z,23.52
2018-12-15T08:06:41.350Z,23.51
2018-12-15T08:08:34.303Z,23.58
2018-12-15T08:09:34.321Z,23.52
2018-12-15T08:11:27.264Z,23.58
2018-12-15T08:12:27.295Z,23.55
2018-12-15T08:14:20.288Z,23.74
2018-12-15T08:15:20.273Z,23.67
2018-12-15T08:17:13.227Z,23.66
2018-12-15T08:18:13.248Z,23.66
2018-12-15T08:20:06.204Z,23.77
2018-12-15T08:21:06.223Z,23.67
2018-12-15T08:22:59.191Z,23.73
2018-12-15T08:23:59.207Z,23.67
2018-12-15T08:25:52.155Z,23.70
2018-12-15T08:26:52.187Z,23.74
2018-12-15T08:28:45.630Z,23.85
2018-12-15T08:29:45.649Z,23.81
2018-12-15T08:31:38.604Z,23.85
2018-12-15T08:32:38.633Z,23.84
2018-12-15T08:34:31.599Z,23.81
2018-12-15T08:35:31.621Z,23.89
2018-12-15T08:37:24.579Z,23.86
2018-12-15T08:38:24.600Z,23.77
2018-12-15T08:40:17.566Z,23.89
2018-12-15T08:41:17.595Z,23.79
2018-12-15T08:43:10.553Z,23.85
2018-12-15T08:44:10.576Z,23.85
2018-12-15T08:46:04.020Z,23.91
2018-12-15T08:47:04.052Z,23.91
2018-12-15T08:48:57.012Z,23.92
2018-12-15T08:49:57.034Z,24.04
2018-12-15T08:51:49.983Z,23.95
2018-12-15T08:52:50.016Z,23.58
2018-12-15T08:54:43.459Z,23.14
2018-12-15T08:55:43.481Z,23.18
2018-12-15T08:57:36.452Z,23.44
2018-12-15T08:58:36.460Z,23.34
2018-12-15T09:00:29.407Z,23.62
2018-12-15T09:01:29.435Z,23.62
2018-12-15T09:03:22.880Z,23.66
2018-12-15T09:04:22.899Z,23.74
2018-12-15T09:06:15.843Z,23.73
2018-12-15T09:07:16.664Z,23.77
2018-12-15T09:09:08.830Z,23.74
2018-12-15T09:10:08.850Z,23.74
2018-12-15T09:12:01.796Z,23.74
2018-12-15T09:13:02.432Z,23.76
2018-12-15T09:14:54.781Z,23.76
2018-12-15T09:15:54.805Z,23.73
2018-12-15T09:17:48.246Z,23.66
2018-12-15T09:18:48.278Z,23.55
2018-12-15T09:20:41.770Z,23.62
2018-12-15T09:21:41.748Z,23.70
2018-12-15T09:23:34.699Z,23.74
2018-12-15T09:24:34.722Z,23.77
2018-12-15T09:26:27.669Z,23.76
2018-12-15T09:27:27.700Z,23.67
2018-12-15T09:29:21.057Z,23.73
2018-12-15T09:30:21.060Z,23.74
2018-12-15T09:32:13.990Z,23.70
2018-12-15T09:33:14.019Z,23.58
2018-12-15T09:35:06.975Z,23.62
2018-12-15T09:36:06.995Z,23.58
2018-12-15T09:37:59.941Z,23.58
2018-12-15T09:38:59.966Z,23.73
2018-12-15T09:40:52.932Z,23.59
2018-12-15T09:41:52.950Z,23.56
2018-12-15T09:43:46.935Z,23.66
2018-12-15T09:44:47.129Z,23.59
2018-12-15T09:46:39.926Z,23.55
2018-12-15T09:47:40.138Z,23.62
2018-12-15T09:49:32.908Z,23.62
2018-12-15T09:50:32.987Z,23.62
2018-12-15T09:52:25.876Z,23.58
2018-12-15T09:53:25.909Z,23.55
2018-12-15T09:55:18.859Z,23.56
2018-12-15T09:56:18.888Z,23.56
2018-12-15T09:58:11.839Z,23.66
2018-12-15T09:59:11.861Z,23.69
2018-12-15T10:01:04.813Z,23.70
2018-12-15T10:02:04.836Z,23.56
2018-12-15T10:03:58.063Z,23.58
2018-12-15T10:04:58.088Z,23.64
2018-12-15T10:06:51.169Z,23.69
2018-12-15T10:07:51.066Z,23.66
2018-12-15T10:09:45.029Z,23.69
2018-12-15T10:10:45.048Z,23.66
2018-12-15T10:12:37.996Z,23.71
2018-12-15T10:13:38.026Z,23.70
2018-12-15T10:15:30.984Z,23.70
2018-12-15T10:16:31.018Z,23.73
2018-12-15T10:18:23.958Z,23.73
2018-12-15T10:19:24.416Z,23.73
2018-12-15T10:21:16.933Z,23.70
2018-12-15T10:22:16.956Z,23.66
2018-12-15T10:24:09.958Z,23.70
2018-12-15T10:25:09.975Z,23.76
2018-12-15T10:27:02.923Z,23.77
2018-12-15T10:28:02.955Z,23.76
2018-12-15T10:29:56.397Z,23.74
2018-12-15T10:30:56.420Z,23.76
2018-12-15T10:32:49.863Z,23.74
2018-12-15T10:33:49.887Z,23.70
2018-12-15T10:35:43.342Z,23.73
2018-12-15T10:36:43.362Z,23.66
2018-12-15T10:38:36.813Z,23.73
2018-12-15T10:39:36.910Z,23.79
2018-12-15T10:41:30.302Z,23.76
2018-12-15T10:42:30.323Z,23.76
2018-12-15T10:44:23.768Z,23.76
2018-12-15T10:45:23.791Z,23.77
2018-12-15T10:47:17.248Z,23.77
2018-12-15T10:48:17.269Z,23.77
2018-12-15T10:50:10.713Z,23.76
2018-12-15T10:51:10.734Z,23.74
2018-12-15T10:53:04.199Z,23.73
2018-12-15T10:54:04.204Z,23.74
2018-12-15T10:55:57.663Z,23.77
2018-12-15T10:56:57.686Z,23.81
2018-12-15T10:58:51.135Z,23.81
2018-12-15T10:59:51.164Z,23.73
2018-12-15T11:01:44.618Z,23.81
2018-12-15T11:02:44.648Z,23.73
2018-12-15T11:04:38.078Z,23.76
2018-12-15T11:05:38.106Z,23.74
2018-12-15T11:07:31.551Z,23.73
2018-12-15T11:08:31.573Z,23.74
2018-12-15T11:10:25.022Z,23.74
2018-12-15T11:11:25.045Z,23.71
2018-12-15T11:13:18.477Z,23.76
2018-12-15T11:14:18.511Z,23.73
2018-12-15T11:16:11.958Z,23.76
2018-12-15T11:17:11.978Z,23.79
2018-12-15T11:19:05.414Z,23.81
2018-12-15T11:20:05.446Z,23.74
2018-12-15T11:21:58.904Z,23.79
2018-12-15T11:22:58.929Z,23.74
2018-12-15T11:24:52.393Z,23.77
2018-12-15T11:25:52.417Z,23.77
2018-12-15T11:27:45.878Z,23.81
2018-12-15T11:28:45.899Z,23.77
2018-12-15T11:30:39.359Z,23.74
2018-12-15T11:31:39.376Z,23.79
2018-12-15T11:33:32.828Z,23.88
2018-12-15T11:34:32.858Z,23.95
2018-12-15T11:36:26.303Z,23.82
2018-12-15T11:37:26.325Z,23.85
2018-12-15T11:39:19.775Z,23.79
2018-12-15T11:40:19.808Z,23.82
2018-12-15T11:42:13.264Z,23.82
2018-12-15T11:43:13.283Z,23.76
2018-12-15T11:45:06.723Z,23.76
2018-12-15T11:46:06.753Z,23.77
2018-12-15T11:48:00.201Z,23.84
2018-12-15T11:49:00.224Z,23.82
2018-12-15T11:50:53.798Z,23.82
2018-12-15T11:51:53.694Z,23.82
2018-12-15T11:53:47.133Z,23.81
2018-12-15T11:54:47.162Z,23.85
2018-12-15T11:56:40.625Z,23.92
2018-12-15T11:57:40.643Z,23.82
2018-12-15T11:59:34.093Z,23.88
2018-12-15T12:00:34.127Z,23.89
2018-12-15T12:02:31.910Z,23.86
2018-12-15T12:03:27.594Z,23.84
2018-12-15T12:05:21.032Z,23.81
2018-12-15T12:06:21.063Z,23.84
2018-12-15T12:08:14.018Z,23.74
2018-12-15T12:09:14.041Z,23.79
2018-12-15T12:11:07.528Z,23.81
2018-12-15T12:12:07.511Z,23.77
2018-12-15T12:14:00.964Z,23.74
2018-12-15T12:15:00.994Z,23.82
2018-12-15T12:16:54.443Z,23.85
2018-12-15T12:17:54.462Z,23.81
2018-12-15T12:19:50.280Z,23.85
2018-12-15T12:20:47.946Z,23.81
2018-12-15T12:22:41.404Z,23.76
2018-12-15T12:23:41.428Z,23.85
2018-12-15T12:25:34.885Z,23.82
2018-12-15T12:26:34.913Z,23.82
2018-12-15T12:28:28.360Z,23.84
2018-12-15T12:29:28.382Z,23.76
2018-12-15T12:31:21.859Z,23.77
2018-12-15T12:32:21.860Z,23.76
2018-12-15T12:34:15.505Z,23.76
2018-12-15T12:35:15.334Z,23.77
2018-12-15T12:37:08.796Z,23.85
2018-12-15T12:38:08.811Z,23.85
2018-12-15T12:40:02.251Z,23.84
2018-12-15T12:41:02.281Z,23.82
2018-12-15T12:42:55.238Z,23.73
2018-12-15T12:43:55.262Z,23.73
2018-12-15T12:45:48.700Z,23.77
2018-12-15T12:46:48.731Z,23.81
2018-12-15T12:48:42.188Z,23.81
2018-12-15T12:49:42.207Z,23.88
2018-12-15T12:51:35.695Z,23.81
2018-12-15T12:52:35.675Z,23.79
2018-12-15T12:54:29.250Z,23.82
2018-12-15T12:55:29.276Z,23.82
2018-12-15T12:57:22.733Z,23.88
2018-12-15T12:58:22.756Z,23.79
2018-12-15T13:00:16.204Z,23.76
2018-12-15T13:01:16.237Z,23.85
2018-12-15T13:03:09.729Z,23.85
2018-12-15T13:04:09.717Z,23.81
2018-12-15T13:06:03.159Z,23.95
2018-12-15T13:07:03.188Z,23.77
2018-12-15T13:08:56.647Z,23.84
2018-12-15T13:09:56.672Z,23.85
2018-12-15T13:11:50.154Z,23.74
2018-12-15T13:12:50.149Z,23.76
2018-12-15T13:14:43.589Z,23.82
2018-12-15T13:15:43.615Z,23.79
2018-12-15T13:17:37.074Z,23.69
2018-12-15T13:18:37.094Z,23.70
2018-12-15T13:20:30.545Z,23.67
2018-12-15T13:21:30.573Z,23.74
2018-12-15T13:23:24.023Z,23.70
2018-12-15T13:24:24.046Z,23.71
2018-12-15T13:26:17.496Z,23.66
2018-12-15T13:27:17.526Z,23.63
2018-12-15T13:29:10.980Z,23.63
2018-12-15T13:30:11.004Z,23.59
2018-12-15T13:32:04.450Z,23.63
2018-12-15T13:33:04.476Z,23.62
2018-12-15T13:34:57.917Z,23.70
2018-12-15T13:35:57.947Z,23.70
2018-12-15T13:37:51.397Z,23.66
2018-12-15T13:38:51.419Z,23.64
2018-12-15T13:40:44.867Z,23.70
2018-12-15T13:41:44.897Z,23.71
2018-12-15T13:43:38.347Z,23.69
2018-12-15T13:44:38.371Z,23.63
2018-12-15T13:46:31.812Z,23.66
2018-12-15T13:47:31.840Z,23.67
2018-12-15T13:49:25.288Z,23.67
2018-12-15T13:50:25.305Z,23.67
2018-12-15T13:52:18.265Z,23.70
2018-12-15T13:53:18.283Z,23.71
2018-12-15T13:55:11.729Z,23.76
2018-12-15T13:56:11.750Z,23.70
2018-12-15T13:58:05.194Z,23.81
2018-12-15T13:59:05.217Z,23.74
2018-12-15T14:00:58.656Z,23.67
2018-12-15T14:01:58.685Z,23.74
2018-12-15T14:03:51.654Z,23.77
2018-12-15T14:04:51.667Z,23.77
2018-12-15T14:06:44.611Z,23.71
2018-12-15T14:07:44.642Z,23.71
2018-12-15T14:09:37.666Z,23.84
2018-12-15T14:10:37.689Z,23.76
2018-12-15T14:12:30.641Z,23.76
2018-12-15T14:13:30.664Z,23.74
2018-12-15T14:15:23.617Z,23.73
2018-12-15T14:16:23.647Z,23.74
2018-12-15T14:18:16.600Z,23.76
2018-12-15T14:19:16.620Z,23.77
2018-12-15T14:21:09.569Z,23.77
2018-12-15T14:22:09.598Z,23.76
2018-12-15T14:24:02.553Z,23.74
2018-12-15T14:25:02.581Z,23.76
2018-12-15T14:26:56.028Z,23.77
2018-12-15T14:27:56.055Z,23.79
2018-12-15T14:29:49.010Z,23.95
2018-12-15T14:30:49.033Z,23.95
2018-12-15T14:32:42.028Z,23.92
2018-12-15T14:33:42.014Z,23.91
2018-12-15T14:35:34.962Z,23.84
2018-12-15T14:36:34.993Z,23.84
2018-12-15T14:38:27.949Z,23.91
2018-12-15T14:39:28.040Z,23.96
2018-12-15T14:41:20.926Z,23.85
2018-12-15T14:42:20.952Z,23.95
2018-12-15T14:44:13.903Z,24.04
2018-12-15T14:45:13.926Z,23.96
2018-12-15T14:47:06.874Z,24.03
2018-12-15T14:48:06.901Z,24.03
2018-12-15T14:49:59.854Z,24.07
2018-12-15T14:50:59.876Z,23.92
2018-12-15T14:52:52.825Z,23.99
2018-12-15T14:53:52.856Z,24.01
2018-12-15T14:55:45.813Z,23.91
2018-12-15T14:56:45.835Z,23.95
2018-12-15T14:58:38.818Z,23.99
2018-12-15T14:59:38.843Z,24.04
2018-12-15T15:01:31.786Z,24.04
2018-12-15T15:02:31.822Z,24.00
2018-12-15T15:04:24.776Z,24.06
2018-12-15T15:05:24.801Z,24.07
2018-12-15T15:07:17.735Z,24.11
2018-12-15T15:08:17.772Z,24.14
2018-12-15T15:10:10.749Z,24.06
2018-12-15T15:11:10.768Z,24.07
2018-12-15T15:13:03.722Z,24.01
2018-12-15T15:14:03.745Z,23.99
2018-12-15T15:15:56.839Z,24.09
2018-12-15T15:16:56.883Z,23.96
2018-12-15T15:18:50.184Z,24.00
2018-12-15T15:19:49.983Z,24.01
2018-12-15T15:21:43.464Z,23.96
2018-12-15T15:22:43.094Z,23.99
2018-12-15T15:24:36.051Z,23.95
2018-12-15T15:25:36.076Z,23.96
2018-12-15T15:27:29.096Z,24.07
2018-12-15T15:28:29.128Z,24.11
2018-12-15T15:30:22.090Z,24.03
2018-12-15T15:31:22.110Z,23.99
2018-12-15T15:33:15.049Z,23.99
2018-12-15T15:34:15.079Z,24.01
2018-12-15T15:36:08.036Z,24.04
2018-12-15T15:37:08.051Z,24.04
2018-12-15T15:39:01.010Z,24.14
2018-12-15T15:40:01.032Z,24.06
2018-12-15T15:41:53.979Z,24.11
2018-12-15T15:42:54.009Z,24.19
2018-12-15T15:44:46.966Z,24.19
2018-12-15T15:45:46.987Z,24.24
2018-12-15T15:47:39.934Z,24.24
2018-12-15T15:48:39.965Z,24.24
2018-12-15T15:50:36.460Z,24.13
2018-12-15T15:51:32.940Z,24.07
2018-12-15T15:53:25.887Z,24.21
2018-12-15T15:54:25.917Z,24.13
2018-12-15T15:56:18.875Z,24.21
2018-12-15T15:57:18.896Z,24.18
2018-12-15T15:59:11.852Z,24.10
2018-12-15T16:00:11.875Z,24.11
2018-12-15T16:02:04.834Z,24.21
2018-12-15T16:03:04.859Z,24.09
2018-12-15T16:04:57.844Z,23.92
2018-12-15T16:05:57.833Z,23.95
2018-12-15T16:07:50.786Z,24.03
2018-12-15T16:08:50.815Z,23.92
2018-12-15T16:10:43.772Z,24.07
2018-12-15T16:11:43.801Z,24.10
2018-12-15T16:13:36.741Z,23.99
2018-12-15T16:14:36.774Z,23.89
2018-12-15T16:16:29.728Z,23.92
2018-12-15T16:17:29.760Z,23.79
2018-12-15T16:19:22.703Z,23.71
2018-12-15T16:20:22.724Z,23.69
2018-12-15T16:22:16.675Z,23.71
2018-12-15T16:23:15.698Z,23.48
2018-12-15T16:25:08.653Z,23.67
2018-12-15T16:26:08.675Z,23.52
2018-12-15T16:28:01.623Z,23.70
2018-12-15T16:29:01.657Z,23.70
2018-12-15T16:30:54.613Z,23.85
2018-12-15T16:31:54.635Z,23.86
2018-12-15T16:33:47.583Z,23.91
2018-12-15T16:34:47.613Z,23.86
2018-12-15T16:36:40.572Z,23.92
2018-12-15T16:37:40.588Z,23.96
2018-12-15T16:39:33.546Z,24.10
2018-12-15T16:40:33.569Z,24.09
2018-12-15T16:42:26.518Z,24.19
2018-12-15T16:43:26.550Z,24.14
2018-12-15T16:45:19.506Z,24.21
2018-12-15T16:46:19.532Z,24.21
2018-12-15T16:48:12.478Z,24.19
2018-12-15T16:49:12.507Z,24.22
2018-12-15T16:51:05.460Z,24.24
2018-12-15T16:52:05.479Z,24.22
2018-12-15T16:53:58.425Z,24.28
2018-12-15T16:54:58.456Z,24.22
2018-12-15T16:56:51.908Z,24.24
2018-12-15T16:57:51.931Z,24.26
2018-12-15T16:59:44.878Z,24.22
2018-12-15T17:00:44.909Z,24.21
2018-12-15T17:02:37.865Z,24.19
2018-12-15T17:03:37.889Z,24.24
2018-12-15T17:05:30.845Z,24.21
2018-12-15T17:06:30.870Z,24.04
2018-12-15T17:08:23.813Z,24.11
2018-12-15T17:09:23.845Z,24.10
2018-12-15T17:11:16.809Z,24.03
2018-12-15T17:12:16.818Z,24.11
2018-12-15T17:14:09.768Z,23.92
2018-12-15T17:15:09.799Z,23.99
2018-12-15T17:17:02.749Z,23.88
2018-12-15T17:18:02.771Z,23.84
2018-12-15T17:19:55.718Z,23.95
2018-12-15T17:20:56.786Z,23.99
2018-12-15T17:22:48.705Z,23.81
2018-12-15T17:23:48.726Z,23.82
2018-12-15T17:25:41.682Z,23.92
2018-12-15T17:26:41.707Z,23.88
2018-12-15T17:28:34.652Z,23.99
2018-12-15T17:29:34.679Z,23.88
2018-12-15T17:31:27.638Z,23.95
2018-12-15T17:32:28.260Z,23.92
2018-12-15T17:34:20.606Z,23.95
2018-12-15T17:35:20.638Z,23.94
2018-12-15T17:37:13.592Z,23.95
2018-12-15T17:38:13.615Z,23.96
2018-12-15T17:40:06.566Z,24.03
2018-12-15T17:41:06.594Z,24.06
2018-12-15T17:42:59.545Z,24.06
2018-12-15T17:43:59.570Z,24.07
2018-12-15T17:45:52.532Z,24.10
2018-12-15T17:46:52.551Z,24.11
2018-12-15T17:48:45.512Z,24.07
2018-12-15T17:49:45.532Z,24.19
2018-12-15T17:51:38.487Z,24.18
2018-12-15T17:52:38.511Z,24.24
2018-12-15T17:54:31.459Z,24.26
2018-12-15T17:55:31.491Z,24.25
2018-12-15T17:57:24.446Z,24.19
2018-12-15T17:58:24.470Z,24.06
2018-12-15T18:00:17.417Z,24.07
2018-12-15T18:01:17.443Z,24.07
2018-12-15T18:03:10.398Z,24.07
2018-12-15T18:04:10.423Z,24.03
2018-12-15T18:06:03.378Z,24.00
2018-12-15T18:07:03.400Z,24.07
2018-12-15T18:08:56.345Z,24.07
2018-12-15T18:09:56.374Z,24.04
2018-12-15T18:11:49.422Z,24.21
2018-12-15T18:12:49.428Z,24.25
2018-12-15T18:14:42.393Z,24.24
2018-12-15T18:15:42.405Z,24.28
2018-12-15T18:17:35.359Z,24.19
2018-12-15T18:18:35.382Z,24.21
2018-12-15T18:20:28.354Z,24.25
2018-12-15T18:21:28.367Z,24.24
2018-12-15T18:23:21.319Z,24.26
2018-12-15T18:24:21.340Z,24.22
2018-12-15T18:26:14.285Z,24.24
2018-12-15T18:27:14.317Z,24.24
2018-12-15T18:29:07.273Z,24.31
2018-12-15T18:30:07.302Z,24.40
2018-12-15T18:32:00.431Z,24.41
2018-12-15T18:33:00.276Z,24.37
2018-12-15T18:34:53.223Z,24.43